Time;durP1;ratioP1;P1;durP2;ratioP2;P2;SDS_P1;SDS_P2;PMS_P1;PMS_P2;Temp;Humidity;BMP_temperature;BMP_pressure;BME280_temperature;BME280_humidity;BME280_pressure;Samples;Min_cycle;Max_cycle;Signal;HPM_P1;HPM_P2
2022/05/30 00:00:21;;;;;;;1652.07;785.28;;;8.90;99.90;;;;;;5093460;28;20054;-81
2022/05/30 00:02:47;;;;;;;1709.43;836.60;;;8.20;99.90;;;;;;5092661;28;20135;-83
2022/05/30 00:05:14;;;;;;;1796.53;847.58;;;8.10;99.90;;;;;;5110755;28;20036;-82
2022/05/30 00:07:40;;;;;;;1716.65;888.30;;;8.10;99.90;;;;;;5111083;28;20412;-82
2022/05/30 00:10:09;;;;;;;1638.43;813.55;;;8.10;99.90;;;;;;5111045;28;20039;-82
2022/05/30 00:12:36;;;;;;;1999.90;999.90;;;8.10;99.90;;;;;;5092960;28;20043;-86
2022/05/30 00:15:02;;;;;;;1670.75;805.85;;;8.10;99.90;;;;;;5111645;28;20130;-82
2022/05/30 00:17:28;;;;;;;1704.45;850.75;;;8.10;99.90;;;;;;5110803;28;20181;-82
2022/05/30 00:19:53;;;;;;;1999.90;999.90;;;8.80;99.90;;;;;;5092366;28;20141;-82
2022/05/30 00:22:19;;;;;;;1999.90;999.90;;;8.10;99.90;;;;;;5111459;28;20288;-81
2022/05/30 00:24:44;;;;;;;1999.90;999.90;;;8.90;99.90;;;;;;5109470;28;20468;-81
2022/05/30 00:27:11;;;;;;;1999.90;999.90;;;8.30;99.90;;;;;;5111278;28;20055;-82
2022/05/30 00:29:38;;;;;;;1999.90;999.90;;;10.00;99.90;;;;;;5110527;28;20536;-82
2022/05/30 00:32:06;;;;;;;1999.90;999.90;;;8.30;99.90;;;;;;5110740;28;20099;-82
2022/05/30 00:34:32;;;;;;;1999.90;999.90;;;8.30;99.90;;;;;;5110331;28;20071;-87
2022/05/30 00:36:58;;;;;;;1999.90;999.90;;;9.00;99.90;;;;;;5110557;28;20055;-83
2022/05/30 00:39:24;;;;;;;1999.90;999.90;;;10.00;99.90;;;;;;5105403;28;20048;-86
2022/05/30 00:41:49;;;;;;;1999.90;999.90;;;8.30;99.90;;;;;;5109459;28;20061;-82
2022/05/30 00:44:15;;;;;;;1999.90;999.90;;;8.30;99.90;;;;;;5110381;28;20096;-82
2022/05/30 00:46:41;;;;;;;1649.80;859.05;;;8.30;99.90;;;;;;5110026;28;20054;-82
2022/05/30 00:49:10;;;;;;;1675.45;918.95;;;9.10;99.90;;;;;;5111505;28;20100;-81
2022/05/30 00:51:42;;;;;;;1665.63;844.95;;;9.90;99.90;;;;;;5110999;28;20062;-82
2022/05/30 00:54:12;;;;;;;1905.30;815.83;;;7.90;99.90;;;;;;5110686;28;20100;-83
2022/05/30 00:56:44;;;;;;;1729.35;884.55;;;7.80;99.90;;;;;;5108684;28;20441;-83
2022/05/30 00:59:10;;;;;;;1682.18;880.72;;;8.60;99.90;;;;;;5110533;28;20052;-83
2022/05/30 01:01:36;;;;;;;1588.95;856.78;;;8.30;99.90;;;;;;5091912;28;20395;-83
2022/05/30 01:06:51;;;;;;;;;;;7.90;99.90;;;;;;5108443;28;20063;-83
2022/05/30 01:09:29;;;;;;;1544.60;827.08;;;7.70;99.90;;;;;;5090461;28;20006;-85
2022/05/30 01:12:05;;;;;;;1652.90;889.60;;;9.80;99.90;;;;;;5091218;28;20036;-82
2022/05/30 01:14:38;;;;;;;1522.85;834.05;;;7.70;99.90;;;;;;5091774;28;20411;-83
2022/05/30 01:17:08;;;;;;;1580.18;860.75;;;7.20;99.90;;;;;;5091338;28;20113;-84
2022/05/30 01:19:45;;;;;;;1587.72;841.53;;;8.10;99.90;;;;;;5110284;28;20123;-85
2022/05/30 01:22:32;;;;;;;1392.53;741.75;;;7.50;99.90;;;;;;5109939;28;20130;-82
2022/05/30 01:25:27;;;;;;;1602.57;835.05;;;7.40;99.90;;;;;;5090954;28;20043;-82
2022/05/30 01:28:33;;;;;;;1442.10;828.50;;;7.40;99.90;;;;;;5108666;28;20085;-83
2022/05/30 01:30:59;;;;;;;1434.95;756.28;;;7.30;99.90;;;;;;5072122;28;20074;-81
2022/05/30 01:33:25;;;;;;;1499.82;854.28;;;;;;;;;;5109905;28;20127;-82
2022/05/30 01:35:50;;;;;;;1466.53;866.92;;;7.10;99.90;;;;;;5111166;28;20047;-82
2022/05/30 01:38:16;;;;;;;1524.50;743.97;;;9.30;99.90;;;;;;5094671;28;20387;-82
2022/05/30 01:40:42;;;;;;;1624.03;787.33;;;9.20;99.90;;;;;;5114668;28;20447;-82
2022/05/30 01:43:07;;;;;;;1362.00;719.65;;;8.20;99.90;;;;;;5113751;28;20130;-83
2022/05/30 01:45:33;;;;;;;1295.70;661.15;;;9.60;99.90;;;;;;5095070;28;20086;-82
2022/05/30 01:47:59;;;;;;;1611.05;888.58;;;6.80;99.90;;;;;;5112784;28;20047;-83
2022/05/30 01:50:27;;;;;;;1625.57;828.45;;;9.60;99.90;;;;;;5095628;28;20433;-82
2022/05/30 01:52:53;;;;;;;1633.30;834.80;;;7.10;99.90;;;;;;5113574;28;20504;-83
2022/05/30 01:55:19;;;;;;;1520.47;696.58;;;7.30;99.90;;;;;;5112716;28;20096;-82
2022/05/30 01:57:44;;;;;;;1891.90;930.45;;;7.00;99.90;;;;;;5096409;28;20083;-81
2022/05/30 02:00:11;;;;;;;1843.78;928.85;;;7.00;99.90;;;;;;5112970;28;20047;-82
2022/05/30 02:02:37;;;;;;;1999.90;999.90;;;6.90;99.90;;;;;;5096259;28;20508;-82
2022/05/30 02:05:05;;;;;;;1999.90;999.90;;;6.70;99.90;;;;;;5112341;28;20123;-82
2022/05/30 02:07:31;;;;;;;1777.60;841.95;;;6.70;99.90;;;;;;5113884;28;20066;-82
2022/05/30 02:09:56;;;;;;;1270.40;637.65;;;6.60;99.90;;;;;;5111892;28;20044;-82
2022/05/30 02:12:22;;;;;;;1999.90;999.90;;;7.50;99.90;;;;;;5095389;28;20066;-85
2022/05/30 02:14:48;;;;;;;1308.65;710.92;;;7.80;99.90;;;;;;5078763;28;20172;-84
2022/05/30 02:17:14;;;;;;;1909.07;930.10;;;6.60;99.90;;;;;;5112160;28;20118;-81
2022/05/30 02:19:42;;;;;;;1325.63;624.72;;;6.60;99.90;;;;;;5095498;28;20472;-81
2022/05/30 02:22:12;;;;;;;1796.80;884.00;;;6.90;99.90;;;;;;5112929;28;20035;-81
2022/05/30 02:24:38;;;;;;;1110.13;466.45;;;7.80;99.90;;;;;;5113309;28;20051;-82
2022/05/30 02:27:05;;;;;;;1804.00;888.72;;;6.10;99.90;;;;;;5112984;28;20047;-81
2022/05/30 02:29:31;;;;;;;1999.90;999.90;;;6.50;99.90;;;;;;5111839;28;20467;-86
2022/05/30 02:31:56;;;;;;;1999.90;999.90;;;7.20;99.90;;;;;;5113237;28;20039;-81
2022/05/30 02:37:06;;;;;;;1697.55;847.22;;;6.90;99.90;;;;;;5112336;28;20097;-82
2022/05/30 02:39:32;;;;;;;1999.90;999.90;;;8.70;99.90;;;;;;5113073;28;20078;-82
2022/05/30 02:41:58;;;;;;;1999.90;999.90;;;6.60;99.90;;;;;;5112557;28;20050;-82
2022/05/30 02:44:25;;;;;;;1889.18;884.63;;;8.70;99.90;;;;;;5113145;28;20050;-82
2022/05/30 02:46:54;;;;;;;1999.90;999.90;;;6.40;99.90;;;;;;5112107;28;20122;-83
2022/05/30 02:49:21;;;;;;;1999.90;999.90;;;8.10;99.90;;;;;;5094508;28;20043;-82
2022/05/30 02:51:47;;;;;;;1999.90;999.90;;;8.10;99.90;;;;;;5095211;28;20127;-81
2022/05/30 02:54:13;;;;;;;1999.90;999.90;;;6.30;99.90;;;;;;5112422;28;20079;-81
2022/05/30 02:56:40;;;;;;;1999.90;999.90;;;6.20;99.90;;;;;;5112023;28;20095;-82
2022/05/30 02:59:07;;;;;;;1999.90;999.90;;;6.50;99.90;;;;;;5112412;28;20078;-81
2022/05/30 03:01:34;;;;;;;1745.38;853.47;;;6.20;99.90;;;;;;5112784;28;20055;-81
2022/05/30 03:04:07;;;;;;;1999.90;999.90;;;6.90;99.90;;;;;;5112450;28;20039;-81
2022/05/30 03:06:33;;;;;;;742.00;293.77;;;6.20;99.90;;;;;;5112979;28;20100;-81
2022/05/30 03:09:00;;;;;;;1766.38;850.90;;;6.50;99.90;;;;;;5111729;28;20492;-81
2022/05/30 03:11:26;;;;;;;1777.10;857.38;;;8.70;99.90;;;;;;5112820;28;20059;-83
2022/05/30 03:13:52;;;;;;;1999.90;999.90;;;6.20;99.90;;;;;;5093706;28;20096;-82
2022/05/30 03:16:17;;;;;;;1731.50;837.58;;;6.10;99.90;;;;;;5113666;28;20039;-82
2022/05/30 03:18:44;;;;;;;1292.63;595.97;;;6.20;99.90;;;;;;5094460;28;20422;-85
2022/05/30 03:21:10;;;;;;;1728.97;854.25;;;8.60;99.90;;;;;;5112748;28;20047;-81
2022/05/30 03:23:36;;;;;;;1671.10;837.47;;;6.80;99.90;;;;;;5111839;28;20048;-81
2022/05/30 03:26:03;;;;;;;742.67;395.02;;;7.30;99.90;;;;;;5112297;28;20049;-84
2022/05/30 03:28:28;;;;;;;978.95;341.13;;;6.30;99.90;;;;;;5093874;28;20059;-82
2022/05/30 03:30:54;;;;;;;884.35;402.42;;;8.60;99.90;;;;;;5111407;28;20119;-83
2022/05/30 03:33:20;;;;;;;845.22;445.17;;;8.70;99.90;;;;;;5111887;28;20051;-84
2022/05/30 03:35:47;;;;;;;951.75;510.85;;;8.90;99.90;;;;;;5113393;28;20044;-81
2022/05/30 03:38:13;;;;;;;1035.10;570.85;;;7.10;99.90;;;;;;5112073;28;20493;-82
2022/05/30 03:40:39;;;;;;;1102.40;605.83;;;7.80;99.90;;;;;;5111860;28;20070;-82
2022/05/30 03:43:08;;;;;;;910.58;506.40;;;7.70;99.90;;;;;;5111861;28;20051;-81
2022/05/30 03:45:36;;;;;;;1017.65;545.97;;;8.90;99.90;;;;;;5093374;28;20417;-84
2022/05/30 03:48:02;;;;;;;1263.15;538.63;;;8.60;99.90;;;;;;5112123;28;20047;-82
2022/05/30 03:50:28;;;;;;;972.80;489.92;;;6.70;99.90;;;;;;5092486;28;20449;-82
2022/05/30 03:52:54;;;;;;;1029.65;549.78;;;8.10;99.90;;;;;;5093617;28;20126;-85
2022/05/30 03:55:22;;;;;;;1101.03;473.00;;;7.00;99.90;;;;;;5058887;28;20123;-81
2022/05/30 03:57:48;;;;;;;;;;;6.60;99.90;;;;;;5111654;28;20043;-82
2022/05/30 04:00:17;;;;;;;938.25;431.10;;;8.90;99.90;;;;;;5111382;28;19926;-82
2022/05/30 04:02:43;;;;;;;970.10;450.15;;;6.60;99.90;;;;;;5111452;28;20052;-81
2022/05/30 04:05:10;;;;;;;1100.90;575.67;;;7.10;99.90;;;;;;5111815;28;20085;-81
2022/05/30 04:07:38;;;;;;;1104.47;566.22;;;9.20;99.90;;;;;;5092478;28;20071;-82
2022/05/30 04:10:05;;;;;;;1175.55;639.72;;;8.10;99.90;;;;;;5111671;28;20044;-82
2022/05/30 04:12:30;;;;;;;1190.72;604.10;;;6.70;99.90;;;;;;5111184;28;20058;-82
2022/05/30 04:14:59;;;;;;;1371.55;664.05;;;6.60;99.90;;;;;;5110384;28;20599;-82
2022/05/30 04:17:25;;;;;;;1147.20;593.75;;;7.00;99.90;;;;;;5110783;28;20214;-82
2022/05/30 04:19:51;;;;;;;1504.85;749.50;;;6.70;99.90;;;;;;5111620;28;20523;-81
2022/05/30 04:22:19;;;;;;;1329.97;702.33;;;9.00;99.90;;;;;;5111432;28;20079;-81
2022/05/30 04:24:44;;;;;;;1378.22;650.45;;;6.80;99.90;;;;;;5110799;28;20050;-82
2022/05/30 04:27:11;;;;;;;1445.57;805.47;;;8.00;99.90;;;;;;5111142;28;20047;-81
2022/05/30 04:29:37;;;;;;;1474.60;772.28;;;8.50;99.90;;;;;;5093789;28;20396;-82
2022/05/30 04:32:04;;;;;;;1501.70;758.78;;;6.80;99.90;;;;;;5111310;28;20051;-83
2022/05/30 04:34:30;;;;;;;1254.88;657.70;;;7.10;99.90;;;;;;5111168;28;20122;-81
2022/05/30 04:36:56;;;;;;;1999.90;999.90;;;8.30;99.90;;;;;;5111265;28;20126;-81
2022/05/30 04:39:22;;;;;;;1999.90;999.90;;;7.60;99.90;;;;;;5110949;28;20127;-82
2022/05/30 04:41:48;;;;;;;1999.90;999.90;;;7.50;99.90;;;;;;5093265;28;20566;-82
2022/05/30 04:44:14;;;;;;;1999.90;999.90;;;7.30;99.90;;;;;;5111285;28;20035;-81
2022/05/30 04:46:40;;;;;;;1999.90;999.90;;;7.90;99.90;;;;;;5092828;28;20087;-81
2022/05/30 04:49:06;;;;;;;1999.90;999.90;;;7.90;99.90;;;;;;5092767;28;20043;-82
2022/05/30 04:51:32;;;;;;;1999.90;999.90;;;10.10;99.90;;;;;;5111824;28;20054;-81
2022/05/30 04:53:57;;;;;;;1999.90;999.90;;;8.10;99.90;;;;;;5093483;28;20052;-82
2022/05/30 04:56:23;;;;;;;1999.90;999.90;;;10.60;99.90;;;;;;5110470;28;20048;-81
2022/05/30 04:58:50;;;;;;;1999.90;999.90;;;8.40;99.90;;;;;;5111135;28;20050;-81
2022/05/30 05:01:17;;;;;;;1999.90;999.90;;;8.40;99.90;;;;;;5076316;28;20406;-82
2022/05/30 05:03:44;;;;;;;1999.90;999.90;;;8.50;99.90;;;;;;5092539;28;20051;-82
2022/05/30 05:06:18;;;;;;;1999.90;999.90;;;8.90;99.90;;;;;;5092371;28;20126;-81
2022/05/30 05:09:29;;;;;;;1999.90;999.90;;;10.60;99.90;;;;;;5110557;28;20053;-82
2022/05/30 05:11:55;;;;;;;1999.90;999.90;;;8.80;99.90;;;;;;5077026;28;20055;-82
2022/05/30 05:14:20;;;;;;;1999.90;999.90;;;9.00;99.90;;;;;;5100238;28;20498;-81
2022/05/30 05:16:46;;;;;;;1999.90;999.90;;;8.90;99.90;;;;;;5118541;28;20191;-81
2022/05/30 05:19:12;;;;;;;1999.90;999.90;;;11.00;99.90;;;;;;5098994;28;20097;-82
2022/05/30 05:21:40;;;;;;;1999.90;999.90;;;8.70;99.90;;;;;;5116503;28;20039;-82
2022/05/30 05:24:07;;;;;;;;;;;10.50;99.90;;;;;;5100433;28;20138;-81
2022/05/30 05:26:33;;;;;;;1999.90;999.90;;;8.80;99.90;;;;;;5119092;28;19923;-81
2022/05/30 05:28:59;;;;;;;1999.90;999.90;;;8.70;99.90;;;;;;5100759;28;20548;-82
2022/05/30 05:31:34;;;;;;;1999.90;999.90;;;9.10;99.90;;;;;;5117843;28;20047;-81
2022/05/30 05:34:05;;;;;;;1999.90;999.90;;;9.00;99.90;;;;;;5118717;28;20464;-81
2022/05/30 05:36:38;;;;;;;1999.90;999.90;;;10.50;99.90;;;;;;5117931;28;20050;-80
2022/05/30 05:39:05;;;;;;;1999.90;999.90;;;9.30;99.90;;;;;;5099283;28;20047;-79
2022/05/30 05:41:30;;;;;;;1999.90;999.90;;;9.90;99.90;;;;;;5117872;28;20179;-80
2022/05/30 05:43:57;;;;;;;1999.90;999.90;;;10.30;99.90;;;;;;5118361;28;20189;-80
2022/05/30 05:46:26;;;;;;;1999.90;999.90;;;10.20;99.90;;;;;;5118410;28;20429;-80
2022/05/30 05:48:53;;;;;;;1999.90;999.90;;;11.10;99.90;;;;;;5118462;28;20189;-81
2022/05/30 05:51:21;;;;;;;1999.90;999.90;;;10.20;99.90;;;;;;5118167;28;20058;-81
2022/05/30 05:53:47;;;;;;;1999.90;999.90;;;10.30;99.90;;;;;;5118075;28;20550;-81
2022/05/30 05:56:15;;;;;;;1999.90;999.90;;;10.30;99.90;;;;;;5081479;28;20047;-81
2022/05/30 05:58:41;;;;;;;1999.90;999.90;;;11.00;99.90;;;;;;5118063;28;20139;-81
2022/05/30 06:01:08;;;;;;;1999.90;999.90;;;10.20;99.90;;;;;;5081809;28;20098;-80
2022/05/30 06:03:34;;;;;;;1999.90;999.90;;;11.20;99.90;;;;;;5117872;28;20059;-81
2022/05/30 06:05:59;;;;;;;1999.90;999.90;;;10.00;99.90;;;;;;5099713;28;20043;-81
2022/05/30 06:08:25;;;;;;;1999.90;999.90;;;11.20;99.90;;;;;;5117309;28;20152;-81
2022/05/30 06:11:08;;;;;;;1999.90;999.90;;;10.00;99.90;;;;;;5082759;28;20138;-81
2022/05/30 06:13:54;;;;;;;1999.90;999.90;;;10.10;99.90;;;;;;5082389;28;20047;-81
2022/05/30 06:16:26;;;;;;;1999.90;999.90;;;10.30;99.90;;;;;;5117779;28;20051;-81
2022/05/30 06:18:53;;;;;;;1999.90;999.90;;;10.50;99.90;;;;;;5117876;28;20040;-81
2022/05/30 06:21:21;;;;;;;1872.72;873.22;;;11.70;99.90;;;;;;5098539;28;20054;-82
2022/05/30 06:23:47;;;;;;;1999.90;999.90;;;10.80;99.90;;;;;;5095228;28;20043;-80
2022/05/30 06:26:14;;;;;;;1999.90;898.88;;;10.90;99.90;;;;;;5096620;28;20511;-81
2022/05/30 06:28:41;;;;;;;1900.68;692.97;;;12.90;99.90;;;;;;5096591;28;20134;-81
2022/05/30 06:31:13;;;;;;;1880.88;576.05;;;11.10;99.90;;;;;;5114474;28;20100;-80
2022/05/30 06:33:39;;;;;;;1540.55;436.27;;;12.90;99.90;;;;;;5114609;28;20094;-81
2022/05/30 06:36:07;;;;;;;1293.25;380.15;;;11.20;99.90;;;;;;5114618;28;20047;-81
2022/05/30 06:38:33;;;;;;;1999.90;999.90;;;11.10;95.70;;;;;;5095661;28;20055;-81
2022/05/30 06:41:29;;;;;;;1637.10;780.38;;;11.00;92.00;;;;;;5096016;28;20088;-80
2022/05/30 06:44:02;;;;;;;1999.90;999.90;;;10.80;83.00;;;;;;5113554;28;20047;-81
2022/05/30 06:46:28;;;;;;;1999.90;999.90;;;10.60;60.50;;;;;;5113951;28;20132;-81
2022/05/30 06:48:58;;;;;;;1999.90;999.90;;;10.60;70.60;;;;;;5095923;28;20130;-80
2022/05/30 06:51:27;;;;;;;1428.30;467.70;;;11.80;79.50;;;;;;5113695;28;20047;-81
2022/05/30 06:53:54;;;;;;;1999.90;999.90;;;10.60;85.90;;;;;;5113935;28;20048;-81
2022/05/30 06:56:23;;;;;;;1999.90;999.90;;;10.70;59.40;;;;;;5112918;28;20047;-80
2022/05/30 06:58:50;;;;;;;1726.78;761.58;;;10.80;67.20;;;;;;5095722;28;20044;-80
2022/05/30 07:01:18;;;;;;;1999.90;999.90;;;10.60;67.60;;;;;;5113855;28;20047;-80
2022/05/30 07:03:45;;;;;;;1741.65;603.85;;;10.90;69.60;;;;;;5113946;28;20048;-80
2022/05/30 07:06:13;;;;;;;1977.10;553.17;;;11.70;96.00;;;;;;5095699;28;20073;-79
2022/05/30 07:08:39;;;;;;;1659.75;397.65;;;13.60;84.50;;;;;;5094569;28;20138;-81
2022/05/30 07:11:06;;;;;;;1924.97;473.20;;;15.70;21.60;;;;;;5113557;28;20052;-81
2022/05/30 07:13:33;;;;;;;1392.07;583.55;;;15.90;1.00;;;;;;5113498;28;20447;-81
2022/05/30 07:15:58;;;;;;;1999.90;999.90;;;16.10;1.00;;;;;;5113836;28;20036;-80
2022/05/30 07:18:24;;;;;;;1987.18;893.92;;;16.30;1.00;;;;;;5113238;28;20115;-81
2022/05/30 07:21:05;;;;;;;1611.95;999.90;;;16.00;1.00;;;;;;5113457;28;20103;-81
2022/05/30 07:23:32;;;;;;;1682.32;999.90;;;15.70;1.00;;;;;;5094957;28;20117;-81
2022/05/30 07:26:00;;;;;;;1225.70;916.45;;;15.30;1.00;;;;;;5113707;28;20039;-81
2022/05/30 07:28:29;;;;;;;1654.93;999.90;;;15.10;1.00;;;;;;5113675;28;20047;-81
2022/05/30 07:30:55;;;;;;;1601.05;999.90;;;14.90;1.00;;;;;;5095251;28;20051;-81
2022/05/30 07:33:21;;;;;;;1459.65;999.53;;;14.90;1.00;;;;;;5113089;28;20107;-85
2022/05/30 07:35:47;;;;;;;1999.90;999.90;;;14.90;1.00;;;;;;5095331;28;20043;-81
2022/05/30 07:38:13;;;;;;;1099.35;848.85;;;15.40;1.00;;;;;;5113158;28;20426;-81
2022/05/30 07:40:38;;;;;;;1994.30;999.90;;;16.00;1.00;;;;;;5113489;28;20074;-81
2022/05/30 07:43:04;;;;;;;1376.65;980.30;;;17.00;1.00;;;;;;5077699;28;20445;-80
2022/05/30 07:45:31;;;;;;;1282.18;964.50;;;17.80;1.00;;;;;;5113085;28;20040;-80
2022/05/30 07:47:56;;;;;;;980.42;879.97;;;17.80;1.00;;;;;;5113515;28;20055;-80
2022/05/30 07:50:22;;;;;;;886.00;802.28;;;17.70;1.00;;;;;;5113513;28;20124;-80
2022/05/30 07:52:48;;;;;;;984.58;882.03;;;17.60;1.00;;;;;;5094765;28;20039;-81
2022/05/30 07:55:14;;;;;;;1999.90;999.90;;;17.20;1.00;;;;;;5093590;28;20509;-80
2022/05/30 07:57:52;;;;;;;1999.90;999.90;;;16.60;1.00;;;;;;5112328;28;20044;-80
2022/05/30 08:00:23;;;;;;;1937.03;999.90;;;16.00;1.00;;;;;;5094465;28;20063;-80
2022/05/30 08:02:50;;;;;;;1999.90;999.90;;;15.30;1.00;;;;;;5112548;28;20455;-81
2022/05/30 08:05:17;;;;;;;1999.90;999.90;;;14.80;1.00;;;;;;5094411;28;20395;-80
2022/05/30 08:07:44;;;;;;;1999.90;999.90;;;14.40;1.00;;;;;;5093779;28;20127;-80
2022/05/30 08:10:12;;;;;;;1999.90;999.90;;;14.10;1.00;;;;;;5111983;28;20484;-83
2022/05/30 08:12:38;;;;;;;1999.90;999.90;;;13.90;1.00;;;;;;5111700;28;20417;-80
2022/05/30 08:15:06;;;;;;;1999.90;999.90;;;13.80;1.00;;;;;;5077382;28;20052;-80
2022/05/30 08:17:31;;;;;;;1999.90;999.90;;;13.90;1.00;;;;;;5112120;28;20063;-80
2022/05/30 08:19:59;;;;;;;1999.90;999.90;;;14.60;1.00;;;;;;5077244;28;20043;-80
2022/05/30 08:22:25;;;;;;;;;;;15.70;1.00;;;;;;5094323;28;20123;-84
2022/05/30 08:24:53;;;;;;;1403.50;999.90;;;16.80;1.00;;;;;;5093497;28;20320;-80
2022/05/30 08:27:20;;;;;;;1999.90;999.90;;;18.50;1.00;;;;;;5111858;28;20047;-80
2022/05/30 08:29:46;;;;;;;1999.90;999.90;;;20.10;1.00;;;;;;5093494;28;20433;-80
2022/05/30 08:32:13;;;;;;;1207.63;919.00;;;21.40;1.00;;;;;;5111953;28;20039;-80
2022/05/30 08:34:39;;;;;;;1602.50;965.35;;;20.20;1.00;;;;;;5093195;28;20047;-81
2022/05/30 08:37:06;;;;;;;1774.15;959.35;;;18.10;1.00;;;;;;5111756;28;20541;-80
2022/05/30 08:42:26;;;;;;;1999.90;999.90;;;17.00;1.00;;;;;;5111814;28;20057;-80
2022/05/30 08:44:54;;;;;;;1999.90;999.90;;;16.10;1.00;;;;;;5093100;28;20047;-80
2022/05/30 08:47:41;;;;;;;1999.90;999.90;;;16.00;1.00;;;;;;5093570;28;20073;-80
2022/05/30 08:50:46;;;;;;;1999.90;999.90;;;15.10;1.00;;;;;;5111623;28;20437;-80
2022/05/30 08:53:42;;;;;;;1749.57;999.90;;;15.70;1.00;;;;;;5095768;28;20059;-80
2022/05/30 08:56:19;;;;;;;1999.90;999.90;;;16.60;1.00;;;;;;5092635;28;20357;-80
2022/05/30 08:59:01;;;;;;;1039.22;927.92;;;17.10;99.90;;;;;;5111389;28;20108;-80
2022/05/30 09:01:38;;;;;;;1068.50;914.53;;;16.90;99.90;;;;;;5093189;28;20050;-80
2022/05/30 09:04:18;;;;;;;1307.57;999.75;;;17.40;99.90;;;;;;5093423;28;20051;-80
2022/05/30 09:06:50;;;;;;;1287.85;999.90;;;17.70;99.90;;;;;;5076255;28;20070;-79
2022/05/30 09:09:36;;;;;;;914.28;825.97;;;18.20;99.90;;;;;;5093151;28;20048;-80
2022/05/30 09:12:26;;;;;;;910.40;820.72;;;18.50;99.90;;;;;;5111581;28;20048;-80
2022/05/30 09:15:03;;;;;;;1033.65;923.22;;;18.30;99.90;;;;;;5111377;28;20093;-80
2022/05/30 09:17:39;;;;;;;1046.65;933.60;;;18.70;99.90;;;;;;5093541;28;20039;-80
2022/05/30 09:20:09;;;;;;;1116.25;977.63;;;18.60;99.90;;;;;;5111566;28;20570;-79
2022/05/30 09:22:38;;;;;;;1039.90;933.95;;;18.40;99.90;;;;;;5111061;28;20043;-80
2022/05/30 09:27:49;;;;;;;1973.40;999.90;;;17.30;1.00;;;;;;5092920;28;20059;-80
2022/05/30 09:30:24;;;;;;;1999.90;999.90;;;16.10;1.00;;;;;;5111463;28;20047;-80
2022/05/30 09:33:04;;;;;;;1999.90;999.90;;;14.90;1.00;;;;;;5111354;28;20051;-80
2022/05/30 09:35:32;;;;;;;1999.90;933.28;;;13.80;1.00;;;;;;5111631;28;20046;-81
2022/05/30 09:38:08;;;;;;;1999.90;999.90;;;13.00;1.00;;;;;;5110842;28;20122;-80
2022/05/30 09:40:46;;;;;;;1999.90;999.90;;;12.60;1.00;;;;;;5092972;28;20119;-82
2022/05/30 09:43:44;;;;;;;1999.90;880.50;;;12.40;25.50;;;;;;5111552;28;20043;-79
2022/05/30 09:46:34;;;;;;;1999.90;696.80;;;12.30;81.60;;;;;;5102133;28;20508;-79
2022/05/30 09:49:05;;;;;;;1999.90;680.67;;;12.30;93.80;;;;;;5111492;28;20386;-80
2022/05/30 09:51:33;;;;;;;1999.90;980.60;;;12.50;99.90;;;;;;5111636;28;20157;-80
2022/05/30 09:53:58;;;;;;;1999.90;935.95;;;12.70;99.90;;;;;;5110733;28;20055;-80
2022/05/30 09:56:27;;;;;;;1999.90;999.90;;;12.60;99.90;;;;;;5092944;28;20156;-79
2022/05/30 09:59:05;;;;;;;1999.90;999.90;;;12.80;99.90;;;;;;5096800;28;20051;-80
2022/05/30 10:01:35;;;;;;;1999.90;999.90;;;12.90;99.90;;;;;;5115143;28;20135;-80
2022/05/30 10:04:34;;;;;;;1999.90;999.90;;;12.80;99.90;;;;;;5114832;28;20497;-80
2022/05/30 10:07:13;;;;;;;1999.90;909.85;;;12.90;99.90;;;;;;5114279;28;20392;-80
2022/05/30 10:09:51;;;;;;;1999.90;927.58;;;12.80;99.90;;;;;;5096160;28;20048;-81
2022/05/30 10:12:34;;;;;;;1999.90;962.22;;;13.60;99.90;;;;;;5114681;28;20089;-81
2022/05/30 10:15:00;;;;;;;1999.90;999.90;;;13.20;99.90;;;;;;5114574;28;20122;-80
2022/05/30 10:17:35;;;;;;;1999.90;999.90;;;13.30;99.90;;;;;;5114542;28;20051;-80
2022/05/30 10:20:08;;;;;;;1999.90;999.90;;;13.30;99.90;;;;;;5096100;28;20035;-80
2022/05/30 10:28:52;;;;;;;1999.90;999.90;;;13.80;99.90;;;;;;5114170;28;20123;-81
2022/05/30 10:31:51;;;;;;;1999.90;999.90;;;14.00;99.90;;;;;;5095861;28;20050;-81
2022/05/30 10:34:29;;;;;;;1999.90;953.95;;;14.00;99.90;;;;;;5113951;28;20084;-80
2022/05/30 10:37:18;;;;;;;1999.90;999.90;;;14.20;99.90;;;;;;5094930;28;20055;-82
2022/05/30 10:39:59;;;;;;;1999.90;945.33;;;14.10;99.90;;;;;;5112738;28;20445;-82
2022/05/30 10:43:03;;;;;;;1999.90;856.13;;;15.70;96.00;;;;;;5113727;28;20428;-82
2022/05/30 10:45:35;;;;;;;1999.90;847.13;;;14.00;70.80;;;;;;5010627;28;20088;-81
2022/05/30 10:48:03;;;;;;;1999.90;898.13;;;14.00;52.20;;;;;;5095723;28;20112;-82
2022/05/30 10:50:43;;;;;;;1999.90;930.70;;;14.20;41.60;;;;;;5112571;28;20043;-81
2022/05/30 10:53:21;;;;;;;1999.90;907.40;;;15.30;29.90;;;;;;5113424;28;20051;-81
2022/05/30 10:55:51;;;;;;;1999.90;965.92;;;14.40;24.70;;;;;;5112280;28;20422;-81
2022/05/30 10:58:33;;;;;;;1999.90;880.13;;;14.80;1.00;;;;;;5113861;28;20480;-82
2022/05/30 11:01:19;;;;;;;1999.90;887.97;;;14.40;1.00;;;;;;5095436;28;20040;-81
2022/05/30 11:04:00;;;;;;;1999.90;647.72;;;14.40;1.00;;;;;;5113728;28;20043;-81
2022/05/30 11:06:32;;;;;;;1999.90;949.05;;;14.50;1.00;;;;;;5113913;28;20094;-82
2022/05/30 11:09:18;;;;;;;1999.90;854.08;;;14.50;1.00;;;;;;5092105;28;20059;-82
2022/05/30 11:12:07;;;;;;;1999.90;701.83;;;14.40;1.00;;;;;;5092825;28;20039;-82
2022/05/30 11:15:18;;;;;;;1999.90;999.90;;;14.20;1.00;;;;;;5093442;28;20032;-81
2022/05/30 11:17:52;;;;;;;1612.82;608.90;;;13.80;1.00;;;;;;5088820;28;20063;-81
2022/05/30 11:20:22;;;;;;;1999.90;969.78;;;13.30;1.00;;;;;;5093140;28;20051;-82
2022/05/30 11:22:52;;;;;;;1732.07;711.65;;;12.90;1.00;;;;;;5093013;28;20144;-84
2022/05/30 11:25:54;;;;;;;1994.90;891.28;;;12.50;1.00;;;;;;5091879;28;20048;-81
2022/05/30 11:28:44;;;;;;;1784.05;756.60;;;12.30;1.00;;;;;;5092919;28;20059;-81
2022/05/30 11:31:31;;;;;;;1968.22;832.95;;;12.10;1.00;;;;;;5091515;28;20136;-81
2022/05/30 11:34:29;;;;;;;1859.85;750.17;;;12.10;1.00;;;;;;5092847;28;20047;-81
2022/05/30 11:37:03;;;;;;;1999.90;960.83;;;12.00;1.00;;;;;;5036211;28;20568;-81
2022/05/30 11:39:58;;;;;;;1990.97;863.15;;;12.00;1.00;;;;;;5091002;28;20254;-81
2022/05/30 11:42:52;;;;;;;1996.50;858.05;;;12.00;1.00;;;;;;5092782;28;20040;-81
2022/05/30 11:45:29;;;;;;;1999.90;819.70;;;12.10;1.00;;;;;;5091628;28;20061;-81
2022/05/30 11:48:12;;;;;;;1999.90;999.90;;;12.20;1.00;;;;;;5091058;28;20083;-80
2022/05/30 11:50:41;;;;;;;1999.90;777.58;;;13.10;1.00;;;;;;5090771;28;20392;-81
2022/05/30 11:53:54;;;;;;;1964.95;897.78;;;12.50;1.00;;;;;;5090834;28;20385;-81
2022/05/30 11:56:48;;;;;;;1999.90;999.90;;;12.60;1.00;;;;;;5034728;28;20051;-81
2022/05/30 11:59:29;;;;;;;1999.90;999.90;;;12.90;1.00;;;;;;5090618;28;20051;-81
2022/05/30 12:01:58;;;;;;;1734.57;819.28;;;13.00;1.00;;;;;;5091999;28;20048;-80
2022/05/30 12:04:45;;;;;;;1838.85;880.67;;;13.10;1.00;;;;;;5090816;28;20109;-81
2022/05/30 12:07:29;;;;;;;1999.90;867.25;;;13.20;1.00;;;;;;5097363;28;20055;-80
2022/05/30 12:10:18;;;;;;;1999.90;988.92;;;13.40;1.00;;;;;;5111608;28;20090;-81
2022/05/30 12:12:58;;;;;;;1999.90;734.38;;;13.70;1.00;;;;;;5094427;28;20112;-81
2022/05/30 12:16:03;;;;;;;1999.90;952.85;;;14.00;1.00;;;;;;5112493;28;20163;-82
2022/05/30 12:24:14;;;;;;;1999.90;980.67;;;14.80;1.00;;;;;;5093294;28;20127;-81
2022/05/30 12:26:46;;;;;;;1797.40;739.75;;;15.00;1.00;;;;;;5112225;28;20392;-81
2022/05/30 12:29:43;;;;;;;1999.90;999.90;;;15.20;1.00;;;;;;5093544;28;20418;-81
2022/05/30 12:32:09;;;;;;;1801.35;999.90;;;15.40;1.00;;;;;;5111160;28;20052;-80
2022/05/30 12:37:59;;;;;;;1999.90;999.90;;;15.60;1.00;;;;;;5111902;28;20368;-81
2022/05/30 12:40:25;;;;;;;1857.43;751.20;;;15.80;1.00;;;;;;5111930;28;20358;-81
2022/05/30 12:43:10;;;;;;;1999.90;999.90;;;16.00;1.00;;;;;;5111667;28;20055;-85
2022/05/30 12:45:57;;;;;;;1999.90;999.90;;;16.20;1.00;;;;;;5093740;28;20506;-81
2022/05/30 12:48:33;;;;;;;1999.90;999.90;;;16.30;1.00;;;;;;5093502;28;20601;-81
2022/05/30 12:51:19;;;;;;;1999.90;974.55;;;16.20;1.00;;;;;;5111198;28;20039;-80
2022/05/30 12:54:00;;;;;;;1999.90;999.90;;;16.30;1.00;;;;;;5111792;28;20488;-81
2022/05/30 12:56:41;;;;;;;1999.90;999.90;;;16.20;1.00;;;;;;5092431;28;20126;-80